Time;durP1;ratioP1;P1;durP2;ratioP2;P2;SDS_P1;SDS_P2;PMS_P1;PMS_P2;Temp;Humidity;BMP_temperature;BMP_pressure;BME280_temperature;BME280_humidity;BME280_pressure;Samples;Min_cycle;Max_cycle;Signal;HPM_P1;HPM_P2
2023/08/03 00:00:33;;;;;;;2.33;1.80;;;;;;;20.25;60.84;98794.03;2056111;28;20842;-74
2023/08/03 00:01:38;;;;;;;6.05;1.80;;;;;;;20.25;60.57;98808.47;2066455;28;20872;-74
2023/08/03 00:02:40;;;;;;;10.20;1.77;;;;;;;20.24;60.41;98797.91;2080788;27;20034;-75
2023/08/03 00:03:42;;;;;;;3.42;1.60;;;;;;;20.26;60.46;98792.84;2080335;28;20259;-74
2023/08/03 00:04:44;;;;;;;4.97;1.80;;;;;;;20.25;60.49;98794.81;2072252;28;20831;-74
2023/08/03 00:05:47;;;;;;;4.32;1.70;;;;;;;20.25;60.83;98785.84;2072178;28;20033;-75
2023/08/03 00:06:51;;;;;;;5.95;1.83;;;;;;;20.25;60.61;98785.84;2080143;28;20037;-76
2023/08/03 00:07:55;;;;;;;6.28;1.90;;;;;;;20.25;60.44;98788.59;2064385;28;20141;-75
2023/08/03 00:09:02;;;;;;;6.75;2.33;;;;;;;20.24;60.43;98795.19;2066195;28;20038;-75
2023/08/03 00:10:08;;;;;;;6.95;1.80;;;;;;;20.24;60.58;98773.34;2064300;28;20042;-75
2023/08/03 00:11:10;;;;;;;9.45;1.70;;;;;;;20.24;60.54;98800.66;2073810;28;20145;-74
2023/08/03 00:12:12;;;;;;;5.35;1.83;;;;;;;20.23;60.53;98782.72;2081091;28;20042;-74
2023/08/03 00:13:14;;;;;;;8.43;1.90;;;;;;;20.19;60.55;98781.94;2071948;28;20022;-76
2023/08/03 00:14:16;;;;;;;4.63;1.80;;;;;;;20.20;60.56;98783.50;2063791;28;20140;-75
2023/08/03 00:15:20;;;;;;;3.25;1.90;;;;;;;20.24;60.63;98800.66;2063520;28;20129;-74
2023/08/03 00:16:25;;;;;;;7.22;2.10;;;;;;;20.23;60.68;98783.50;2064178;28;20813;-75
2023/08/03 00:17:31;;;;;;;6.80;1.70;;;;;;;20.23;60.61;98777.25;2072531;28;20844;-76
2023/08/03 00:18:33;;;;;;;6.57;1.80;;;;;;;20.20;60.70;98756.19;2072366;28;20860;-75
2023/08/03 00:19:35;;;;;;;8.13;2.10;;;;;;;20.21;60.78;98761.28;2064025;28;20051;-74
2023/08/03 00:20:37;;;;;;;3.88;1.77;;;;;;;20.17;60.75;98751.50;2064260;28;20038;-74
2023/08/03 00:21:43;;;;;;;3.72;1.70;;;;;;;20.19;60.93;98760.88;2071290;28;20030;-75
2023/08/03 00:22:48;;;;;;;3.83;1.50;;;;;;;20.19;60.86;98765.56;2079729;28;20089;-76
2023/08/03 00:23:50;;;;;;;3.78;1.60;;;;;;;20.21;60.73;98760.47;2072526;28;20042;-73
2023/08/03 00:24:53;;;;;;;3.75;1.60;;;;;;;20.19;60.86;98766.34;2055743;28;20039;-74
2023/08/03 00:25:55;;;;;;;3.65;1.65;;;;;;;20.19;60.82;98760.88;2064502;28;20068;-74
2023/08/03 00:26:59;;;;;;;10.43;2.00;;;;;;;20.22;61.04;98753.88;2064144;28;20031;-75
2023/08/03 00:28:04;;;;;;;9.85;2.13;;;;;;;20.19;61.01;98755.44;2079932;28;20041;-75
2023/08/03 00:29:06;;;;;;;8.23;2.05;;;;;;;20.19;61.15;98749.97;2087614;28;20037;-76
2023/08/03 00:30:14;;;;;;;6.78;2.00;;;;;;;20.18;61.07;98751.16;2048743;28;20155;-76
2023/08/03 00:31:15;;;;;;;5.75;1.77;;;;;;;20.20;61.04;98753.47;2048703;28;20031;-75
2023/08/03 00:32:20;;;;;;;6.50;1.90;;;;;;;20.19;61.06;98755.44;2048018;28;20099;-75
2023/08/03 00:33:26;;;;;;;9.07;1.70;;;;;;;20.19;61.15;98760.09;2056867;28;20863;-75
2023/08/03 00:34:32;;;;;;;8.70;1.90;;;;;;;20.18;61.19;98755.81;2056293;28;20154;-75
2023/08/03 00:35:35;;;;;;;6.80;2.17;;;;;;;20.18;61.07;98766.75;2064359;28;20840;-76
2023/08/03 00:36:42;;;;;;;4.18;1.90;;;;;;;20.17;61.26;98749.56;2071740;28;20038;-75
2023/08/03 00:37:51;;;;;;;8.48;1.63;;;;;;;20.18;61.23;98755.81;2056378;28;20042;-76
2023/08/03 00:38:53;;;;;;;4.28;1.70;;;;;;;20.16;61.35;98742.56;2049861;28;20048;-75
2023/08/03 00:39:55;;;;;;;4.57;1.75;;;;;;;20.17;61.39;98746.06;2056134;28;20040;-76
2023/08/03 00:40:59;;;;;;;2.67;1.70;;;;;;;20.17;61.40;98748.78;2063941;28;20027;-75
2023/08/03 00:42:06;;;;;;;7.68;2.08;;;;;;;20.17;61.63;98743.31;2055543;28;20992;-75
2023/08/03 00:43:10;;;;;;;4.88;1.90;;;;;;;20.17;61.57;98737.88;2057565;28;20162;-76
2023/08/03 00:44:17;;;;;;;9.90;1.98;;;;;;;20.17;61.47;98746.06;2064576;28;20105;-76
2023/08/03 00:45:18;;;;;;;2.50;1.60;;;;;;;20.14;61.89;98737.50;2064224;28;20030;-75
2023/08/03 00:46:22;;;;;;;6.13;1.73;;;;;;;20.14;61.57;98737.50;2063926;28;20035;-76
2023/08/03 00:47:26;;;;;;;5.07;1.80;;;;;;;20.14;61.74;98748.41;2055884;28;20838;-75
2023/08/03 00:48:30;;;;;;;6.47;1.75;;;;;;;20.13;61.75;98730.47;2057437;28;20057;-75
2023/08/03 00:49:32;;;;;;;8.57;1.90;;;;;;;20.13;61.57;98719.53;2063840;28;20031;-74
2023/08/03 00:50:34;;;;;;;2.42;1.48;;;;;;;20.11;61.75;98732.81;2050317;28;20058;-75
2023/08/03 00:51:42;;;;;;;4.68;1.90;;;;;;;20.12;61.71;98737.09;2048378;28;20043;-75
2023/08/03 00:52:52;;;;;;;7.03;2.00;;;;;;;20.12;61.88;98725.41;2057864;28;20030;-77
2023/08/03 00:53:58;;;;;;;6.38;1.77;;;;;;;20.00;61.78;98715.63;2050566;28;20786;-75
2023/08/03 00:55:05;;;;;;;6.07;1.50;;;;;;;20.11;61.77;98732.00;2057667;28;20027;-75
2023/08/03 00:56:10;;;;;;;5.82;1.70;;;;;;;20.10;61.79;98733.97;2064192;28;20863;-74
2023/08/03 00:57:15;;;;;;;7.45;1.80;;;;;;;20.09;61.86;98734.38;2064720;28;20062;-75
2023/08/03 00:58:19;;;;;;;5.60;1.90;;;;;;;20.08;61.82;98741.78;2064375;28;20142;-75
2023/08/03 00:59:21;;;;;;;4.20;1.70;;;;;;;20.08;62.00;98736.31;2064361;28;20808;-74
2023/08/03 01:00:23;;;;;;;7.90;1.83;;;;;;;20.07;61.87;98736.69;2063500;28;20023;-74
2023/08/03 01:01:26;;;;;;;5.35;1.63;;;;;;;20.07;61.81;98747.59;2047674;28;20065;-74
2023/08/03 01:02:34;;;;;;;4.88;2.00;;;;;;;20.06;61.91;98722.28;2056981;28;20893;-75
2023/08/03 01:03:43;;;;;;;5.00;1.73;;;;;;;20.07;61.89;98731.22;2056737;28;20040;-75
2023/08/03 01:04:48;;;;;;;5.75;1.70;;;;;;;20.06;62.01;98732.41;2058798;28;20050;-75
2023/08/03 01:05:52;;;;;;;2.35;1.70;;;;;;;20.02;61.88;98726.94;2079966;28;20026;-75
2023/08/03 01:06:54;;;;;;;2.72;1.67;;;;;;;20.05;61.93;98728.09;2079404;28;20030;-74
2023/08/03 01:08:02;;;;;;;8.10;1.90;;;;;;;20.03;62.03;98720.31;2079622;28;20034;-74
2023/08/03 01:09:09;;;;;;;7.22;1.60;;;;;;;20.02;62.10;98726.94;2079766;28;20879;-76
2023/08/03 01:10:10;;;;;;;2.92;1.83;;;;;;;20.02;62.31;98735.13;2072386;28;20030;-75
2023/08/03 01:11:15;;;;;;;3.28;1.50;;;;;;;20.01;62.06;98728.09;2079854;28;20026;-74
2023/08/03 01:12:19;;;;;;;4.20;1.73;;;;;;;20.01;62.23;98730.81;2063238;28;20039;-77
2023/08/03 01:13:20;;;;;;;4.60;1.65;;;;;;;20.00;62.16;98712.91;2049027;28;20128;-75
2023/08/03 01:14:22;;;;;;;3.05;1.63;;;;;;;20.01;62.40;98717.19;2055506;28;20075;-76
2023/08/03 01:15:23;;;;;;;7.47;1.88;;;;;;;19.99;62.41;98708.63;2055862;28;20040;-76
2023/08/03 01:16:26;;;;;;;4.53;1.90;;;;;;;19.99;61.91;98714.06;2055370;28;20046;-75
2023/08/03 01:17:31;;;;;;;5.28;2.03;;;;;;;19.97;62.49;98700.03;2057860;28;20097;-75
2023/08/03 01:18:33;;;;;;;7.47;1.88;;;;;;;19.99;62.46;98705.91;2072109;28;20055;-76
2023/08/03 01:19:34;;;;;;;10.23;1.95;;;;;;;19.99;62.40;98708.63;2071599;28;20154;-76
2023/08/03 01:20:43;;;;;;;2.85;1.70;;;;;;;19.97;62.53;98700.03;2047644;28;20032;-76
2023/08/03 01:21:47;;;;;;;5.30;2.13;;;;;;;19.96;62.56;98703.94;2059084;28;20129;-75
2023/08/03 01:22:51;;;;;;;6.43;1.88;;;;;;;19.95;62.93;98702.34;2079757;28;20022;-75
2023/08/03 01:23:54;;;;;;;5.57;1.90;;;;;;;19.96;62.73;98706.66;2063508;28;20042;-75
2023/08/03 01:24:56;;;;;;;1.88;1.50;;;;;;;19.96;62.75;98714.84;2048103;28;20193;-75
2023/08/03 01:25:58;;;;;;;7.97;1.90;;;;;;;19.96;62.83;98719.53;2047748;28;20046;-74
2023/08/03 01:27:02;;;;;;;4.38;1.92;;;;;;;19.93;62.82;98712.91;2055116;28;20034;-75
2023/08/03 01:28:11;;;;;;;4.70;1.73;;;;;;;19.94;62.90;98738.22;2085528;28;20784;-75
2023/08/03 01:29:15;;;;;;;4.18;2.05;;;;;;;19.94;62.93;98711.72;2088461;28;20026;-74
2023/08/03 01:30:17;;;;;;;9.10;2.30;;;;;;;19.94;63.06;98721.84;2079738;28;20045;-74
2023/08/03 01:31:19;;;;;;;7.20;1.77;;;;;;;19.91;63.03;98716.00;2063660;28;20868;-74
2023/08/03 01:32:23;;;;;;;5.72;1.70;;;;;;;19.93;62.91;98720.31;2056461;28;20035;-74
2023/08/03 01:33:26;;;;;;;9.10;1.73;;;;;;;19.93;62.98;98703.94;2072865;28;20949;-74
2023/08/03 01:34:33;;;;;;;4.30;1.55;;;;;;;19.93;63.12;98721.06;2081046;28;20038;-74
2023/08/03 01:35:37;;;;;;;3.42;1.90;;;;;;;19.93;63.18;98712.91;2065572;28;20019;-77
2023/08/03 01:36:39;;;;;;;3.17;1.67;;;;;;;19.91;63.23;98716.00;2049294;28;20821;-74
2023/08/03 01:37:41;;;;;;;4.03;1.77;;;;;;;19.92;63.26;98700.41;2056685;28;20067;-76
2023/08/03 01:38:52;;;;;;;4.68;2.00;;;;;;;19.93;63.24;98718.34;2073424;28;20048;-76
2023/08/03 01:39:58;;;;;;;6.68;1.80;;;;;;;19.93;63.42;98712.91;2090219;28;20059;-75
2023/08/03 01:41:00;;;;;;;4.57;1.70;;;;;;;19.93;63.44;98710.16;2095734;28;20025;-74
2023/08/03 01:42:01;;;;;;;3.47;1.73;;;;;;;19.93;63.31;98715.63;2048319;28;20032;-75
2023/08/03 01:43:06;;;;;;;2.75;1.80;;;;;;;19.93;63.47;98706.66;2049223;28;20882;-76
2023/08/03 01:44:46;;;;;;;5.68;1.50;;;;;;;19.94;63.44;98706.25;2065076;28;20809;-75
2023/08/03 01:45:50;;;;;;;3.65;1.63;;;;;;;19.95;63.49;98716.00;2060337;28;20043;-75
2023/08/03 01:46:55;;;;;;;2.55;1.60;;;;;;;19.94;63.67;98706.25;2058453;28;20047;-74
2023/08/03 01:47:59;;;;;;;4.38;1.60;;;;;;;19.94;63.65;98722.63;2065096;28;20137;-75
2023/08/03 01:49:01;;;;;;;1.45;1.33;;;;;;;19.96;63.54;98708.63;2065051;28;20026;-74
2023/08/03 01:50:06;;;;;;;4.28;1.80;;;;;;;19.96;63.69;98719.53;2064624;28;20035;-77
2023/08/03 01:51:13;;;;;;;3.03;1.50;;;;;;;19.96;63.69;98720.31;2064516;28;21155;-76
2023/08/03 01:52:15;;;;;;;4.07;1.70;;;;;;;19.96;63.61;98720.31;2058391;28;20031;-76
2023/08/03 01:53:17;;;;;;;3.55;1.70;;;;;;;19.96;63.68;98714.84;2064722;28;20026;-77
2023/08/03 01:54:19;;;;;;;3.50;1.70;;;;;;;19.98;63.55;98719.91;2048716;28;20040;-76
2023/08/03 01:55:22;;;;;;;10.90;1.67;;;;;;;19.97;63.48;98716.41;2041099;28;20849;-76
2023/08/03 01:56:26;;;;;;;6.45;1.80;;;;;;;19.96;63.77;98709.41;2090321;28;20958;-76
2023/08/03 01:57:28;;;;;;;2.03;1.50;;;;;;;19.99;63.80;98716.03;2070435;28;20039;-77
2023/08/03 01:58:35;;;;;;;5.95;1.77;;;;;;;19.97;63.92;98713.66;2040811;28;20024;-77
2023/08/03 01:59:39;;;;;;;2.15;1.60;;;;;;;19.98;63.79;98709.78;2057765;28;20039;-77
2023/08/03 02:00:43;;;;;;;3.25;1.63;;;;;;;19.98;63.93;98728.88;2056113;28;20890;-76
2023/08/03 02:01:45;;;;;;;3.40;1.90;;;;;;;19.98;63.80;98711.72;2064205;28;20798;-75
2023/08/03 02:02:46;;;;;;;5.78;1.88;;;;;;;19.99;63.94;98713.31;2056418;28;20039;-75
2023/08/03 02:03:54;;;;;;;6.40;1.40;;;;;;;19.98;63.86;98711.72;2057428;28;20024;-76
2023/08/03 02:05:02;;;;;;;3.53;1.70;;;;;;;19.99;63.98;98714.06;2049751;28;20036;-75
2023/08/03 02:06:04;;;;;;;8.05;2.00;;;;;;;19.98;63.88;98711.72;2057990;28;20062;-75
2023/08/03 02:07:12;;;;;;;4.63;1.50;;;;;;;20.00;63.96;98710.19;2047967;28;20066;-75
2023/08/03 02:08:14;;;;;;;3.25;1.60;;;;;;;20.00;63.84;98710.19;2057425;28;20042;-74
2023/08/03 02:09:18;;;;;;;4.57;1.65;;;;;;;19.99;63.96;98702.41;2056795;28;20020;-75
2023/08/03 02:10:21;;;;;;;9.02;1.90;;;;;;;20.01;63.93;98710.94;2072697;28;20053;-74
2023/08/03 02:11:26;;;;;;;4.47;1.70;;;;;;;20.01;64.09;98709.00;2057284;28;21079;-75
2023/08/03 02:12:33;;;;;;;4.13;1.77;;;;;;;20.02;64.08;98712.50;2043112;28;20993;-74
2023/08/03 02:13:36;;;;;;;4.20;1.50;;;;;;;20.01;64.00;98719.91;2058549;28;20042;-74
2023/08/03 02:14:42;;;;;;;3.80;2.13;;;;;;;20.01;63.79;98709.00;2065160;28;20039;-74
2023/08/03 02:15:45;;;;;;;2.08;1.55;;;;;;;20.03;64.03;98755.78;2066275;28;20027;-76
2023/08/03 02:16:47;;;;;;;3.53;1.70;;;;;;;20.03;64.01;98706.69;2056626;28;20062;-75
2023/08/03 02:17:49;;;;;;;3.20;1.67;;;;;;;20.03;64.11;98709.41;2050108;28;20915;-75
2023/08/03 02:18:53;;;;;;;4.50;1.88;;;;;;;20.04;64.11;98700.03;2057376;28;20038;-75
2023/08/03 02:19:55;;;;;;;2.70;1.70;;;;;;;20.05;63.98;98712.53;2056968;28;20035;-75
2023/08/03 02:21:02;;;;;;;4.70;1.60;;;;;;;20.03;64.20;98705.91;2058041;28;21163;-75
2023/08/03 02:22:04;;;;;;;4.07;1.50;;;;;;;20.05;64.11;98707.06;2064763;28;20801;-74
2023/08/03 02:23:11;;;;;;;3.08;1.77;;;;;;;20.04;64.20;98705.50;2073066;28;20131;-74
2023/08/03 02:24:13;;;;;;;2.88;1.58;;;;;;;20.05;64.11;98707.06;2073365;28;20049;-75
2023/08/03 02:25:15;;;;;;;3.83;1.73;;;;;;;20.05;64.18;98709.81;2064415;28;20038;-75
2023/08/03 02:26:20;;;;;;;2.53;1.70;;;;;;;20.06;64.36;98702.41;2056748;28;20140;-75
2023/08/03 02:27:22;;;;;;;3.78;2.90;;;;;;;20.04;64.32;98710.94;2057261;28;20087;-74
2023/08/03 02:28:27;;;;;;;2.90;1.60;;;;;;;20.06;64.19;98708.63;2056256;28;20036;-74
2023/08/03 02:29:32;;;;;;;3.70;1.85;;;;;;;20.05;64.43;98718.00;2056796;28;20028;-76
2023/08/03 02:30:36;;;;;;;4.40;1.80;;;;;;;20.05;64.44;98715.25;2049699;28;20036;-75
2023/08/03 02:31:38;;;;;;;5.32;1.60;;;;;;;20.05;64.42;98712.53;2056467;28;20201;-75
2023/08/03 02:32:40;;;;;;;3.90;1.98;;;;;;;20.05;64.55;98720.72;2048579;28;20024;-75
2023/08/03 02:33:47;;;;;;;4.55;1.70;;;;;;;20.04;64.45;98718.38;2040999;28;21014;-75
2023/08/03 02:34:54;;;;;;;3.15;2.08;;;;;;;20.00;64.42;98715.63;2077562;28;20840;-75
2023/08/03 02:35:56;;;;;;;3.03;1.60;;;;;;;20.02;64.48;98716.03;2049384;28;20038;-76
2023/08/03 02:36:58;;;;;;;2.40;1.70;;;;;;;20.02;64.48;98718.75;2064207;28;20086;-75
2023/08/03 02:38:01;;;;;;;3.00;1.60;;;;;;;20.01;64.49;98714.44;2056751;28;20853;-75
2023/08/03 02:39:05;;;;;;;3.88;1.70;;;;;;;20.00;64.65;98712.13;2056628;28;20817;-74
2023/08/03 02:40:10;;;;;;;2.80;1.67;;;;;;;19.98;64.52;98709.78;2041345;28;20147;-74
2023/08/03 02:41:12;;;;;;;4.20;1.70;;;;;;;19.99;64.67;98708.63;2050082;28;20217;-74
2023/08/03 02:42:18;;;;;;;2.72;1.77;;;;;;;20.00;64.57;98710.19;2047997;28;21021;-76
2023/08/03 02:43:27;;;;;;;3.58;1.67;;;;;;;19.98;64.62;98707.03;2051631;28;20253;-75
2023/08/03 02:44:29;;;;;;;3.35;1.70;;;;;;;19.99;64.63;98705.13;2056603;28;20831;-74
2023/08/03 02:45:31;;;;;;;2.58;1.70;;;;;;;19.96;64.82;98700.44;2056107;28;20035;-75
2023/08/03 02:46:32;;;;;;;2.60;1.90;;;;;;;19.97;64.76;98697.31;2056279;28;20035;-74
2023/08/03 02:47:37;;;;;;;3.53;2.50;;;;;;;19.95;64.97;98702.34;2049372;28;20170;-74
2023/08/03 02:48:39;;;;;;;4.88;1.60;;;;;;;19.96;64.82;98709.41;2048124;28;20040;-75
2023/08/03 02:49:45;;;;;;;3.88;1.55;;;;;;;19.93;65.03;98707.44;2057002;28;20832;-75
2023/08/03 02:50:49;;;;;;;2.38;1.60;;;;;;;19.93;65.01;98707.44;2056722;28;20130;-74
2023/08/03 02:51:50;;;;;;;3.88;1.70;;;;;;;19.93;65.13;98704.72;2056653;28;20912;-74
2023/08/03 02:53:01;;;;;;;3.55;1.95;;;;;;;19.90;64.95;98700.03;2057276;28;20892;-75
2023/08/03 02:54:03;;;;;;;4.43;1.85;;;;;;;19.90;65.15;98700.81;2056818;28;20121;-75
2023/08/03 02:55:10;;;;;;;4.78;1.70;;;;;;;19.88;65.08;98686.75;2057966;28;20135;-74
2023/08/03 02:56:14;;;;;;;3.55;1.65;;;;;;;19.91;64.96;98707.03;2065510;28;20862;-75
2023/08/03 02:57:21;;;;;;;2.80;1.70;;;;;;;19.89;65.09;98698.44;2057055;28;20035;-74
2023/08/03 02:58:28;;;;;;;2.58;1.70;;;;;;;19.89;65.16;98696.53;2048910;28;20791;-74
2023/08/03 02:59:30;;;;;;;5.78;2.00;;;;;;;19.89;65.25;98706.63;2064631;28;20027;-74
2023/08/03 03:00:34;;;;;;;5.65;1.75;;;;;;;19.88;65.32;98702.34;2056704;28;20023;-74
2023/08/03 03:01:37;;;;;;;2.00;1.52;;;;;;;19.87;65.31;98696.13;2048936;28;20894;-74
2023/08/03 03:02:42;;;;;;;2.58;1.67;;;;;;;19.83;65.39;98683.63;2056928;28;20252;-74
2023/08/03 03:03:49;;;;;;;5.32;2.00;;;;;;;19.86;65.53;98700.03;2066015;28;20030;-74
2023/08/03 03:04:51;;;;;;;3.28;1.63;;;;;;;19.86;65.55;98696.50;2056014;28;20032;-75
2023/08/03 03:05:53;;;;;;;3.55;1.73;;;;;;;19.82;65.43;98692.97;2040980;28;20146;-74
2023/08/03 03:06:56;;;;;;;3.45;1.70;;;;;;;19.86;65.58;98701.94;2048400;28;20783;-74
2023/08/03 03:07:59;;;;;;;4.50;1.70;;;;;;;19.88;65.42;98703.13;2056762;28;20250;-75
2023/08/03 03:09:03;;;;;;;4.93;2.05;;;;;;;19.85;65.51;98698.44;2064331;28;20197;-75
2023/08/03 03:10:07;;;;;;;2.45;1.75;;;;;;;19.89;65.54;98706.63;2056569;28;20042;-75
2023/08/03 03:11:12;;;;;;;3.45;1.70;;;;;;;19.87;65.42;98701.56;2056326;28;20973;-75
2023/08/03 03:12:16;;;;;;;4.20;2.30;;;;;;;19.90;65.38;98708.97;2069316;28;20198;-75
2023/08/03 03:13:27;;;;;;;4.72;1.63;;;;;;;19.91;65.40;98712.50;2075317;28;20031;-75
2023/08/03 03:14:37;;;;;;;4.80;1.67;;;;;;;19.91;65.42;98713.25;2089162;28;20018;-75
2023/08/03 03:15:41;;;;;;;1.80;1.50;;;;;;;19.92;65.56;98705.84;2073888;28;20038;-75
2023/08/03 03:16:44;;;;;;;3.83;1.65;;;;;;;19.89;65.46;98703.91;2072540;28;20038;-75
2023/08/03 03:17:48;;;;;;;4.10;1.70;;;;;;;19.93;65.62;98707.44;2064301;28;20132;-75
2023/08/03 03:18:49;;;;;;;3.78;1.80;;;;;;;19.94;65.57;98703.53;2057141;28;20043;-74
2023/08/03 03:19:54;;;;;;;4.97;1.90;;;;;;;19.94;65.62;98705.47;2056567;28;20134;-75
2023/08/03 03:21:02;;;;;;;3.33;1.83;;;;;;;19.95;65.59;98707.81;2066978;28;20022;-75
2023/08/03 03:22:06;;;;;;;4.93;1.80;;;;;;;19.96;65.43;98694.97;2065870;28;20035;-75
2023/08/03 03:23:09;;;;;;;1.90;1.58;;;;;;;19.98;65.56;98707.03;2073216;28;20026;-75
2023/08/03 03:24:13;;;;;;;3.10;1.85;;;;;;;19.99;65.54;98691.47;2079799;28;20800;-75
2023/08/03 03:25:14;;;;;;;2.17;1.60;;;;;;;20.00;65.45;98696.53;2062984;28;20027;-75
2023/08/03 03:26:16;;;;;;;2.67;1.80;;;;;;;20.01;65.54;98694.59;2054729;28;20035;-75
2023/08/03 03:27:20;;;;;;;2.78;1.70;;;;;;;19.99;65.58;98686.81;2054863;28;20082;-75
2023/08/03 03:28:27;;;;;;;5.60;2.40;;;;;;;19.99;65.59;98686.03;2047754;28;20044;-75
2023/08/03 03:29:31;;;;;;;3.72;1.90;;;;;;;20.05;65.40;98700.81;2047671;28;20913;-75
2023/08/03 03:30:32;;;;;;;3.88;1.80;;;;;;;20.07;65.52;98698.50;2047083;28;20940;-75
2023/08/03 03:31:37;;;;;;;2.10;1.55;;;;;;;20.08;65.36;98698.13;2055214;28;20078;-75
2023/08/03 03:32:42;;;;;;;4.88;2.05;;;;;;;20.09;65.34;98705.13;2047593;28;20809;-75
2023/08/03 03:33:46;;;;;;;3.03;1.60;;;;;;;20.10;65.40;98708.63;2056138;28;20058;-74
2023/08/03 03:34:50;;;;;;;2.33;1.58;;;;;;;20.13;65.21;98708.63;2055236;28;20878;-75
2023/08/03 03:35:54;;;;;;;3.55;1.70;;;;;;;20.16;65.40;98706.31;2055495;28;20042;-75
2023/08/03 03:36:56;;;;;;;3.28;1.95;;;;;;;20.19;65.27;98711.00;2046800;28;21048;-75
2023/08/03 03:37:58;;;;;;;3.05;1.67;;;;;;;20.21;65.20;98712.16;2055072;28;20039;-75
2023/08/03 03:39:03;;;;;;;2.85;1.83;;;;;;;20.24;65.15;98703.22;2062653;28;20808;-75
2023/08/03 03:40:10;;;;;;;4.50;1.67;;;;;;;20.27;65.14;98698.91;2062722;28;20851;-75
2023/08/03 03:41:18;;;;;;;2.85;1.50;;;;;;;20.31;65.00;98702.44;2057527;28;20023;-75
2023/08/03 03:42:22;;;;;;;3.80;1.73;;;;;;;20.31;65.18;98696.97;2055056;28;20110;-75
2023/08/03 03:43:24;;;;;;;2.60;1.92;;;;;;;20.35;64.95;98703.19;2054389;28;20042;-75
2023/08/03 03:44:27;;;;;;;3.53;1.90;;;;;;;20.38;64.88;98711.38;2055073;28;20043;-74
2023/08/03 03:45:39;;;;;;;3.97;1.90;;;;;;;20.43;64.82;98709.44;2063606;28;20031;-76
2023/08/03 03:46:44;;;;;;;3.58;1.73;;;;;;;20.47;64.99;98710.22;2058263;28;20036;-75
2023/08/03 03:47:54;;;;;;;6.55;1.83;;;;;;;20.51;64.81;98709.09;2063987;28;20180;-75
2023/08/03 03:48:58;;;;;;;3.28;1.67;;;;;;;20.56;64.79;98707.94;2078614;28;20026;-75
2023/08/03 03:50:00;;;;;;;2.88;1.67;;;;;;;20.62;64.56;98708.28;2070408;28;20049;-74
2023/08/03 03:51:02;;;;;;;1.52;1.40;;;;;;;20.67;64.44;98718.84;2054408;28;20039;-74
2023/08/03 03:52:10;;;;;;;1.75;1.35;;;;;;;20.71;64.29;98709.47;2055662;28;20023;-74
2023/08/03 03:53:12;;;;;;;3.28;1.35;;;;;;;20.77;64.14;98712.56;2048361;28;20070;-74
2023/08/03 03:54:19;;;;;;;1.63;1.40;;;;;;;20.82;64.19;98710.22;2056906;28;20034;-75
2023/08/03 03:55:26;;;;;;;4.75;1.65;;;;;;;20.88;63.92;98707.88;2071235;28;20038;-75
2023/08/03 03:56:31;;;;;;;4.70;1.63;;;;;;;20.94;63.70;98706.31;2071167;28;20038;-74
2023/08/03 03:57:36;;;;;;;2.72;1.60;;;;;;;20.99;63.61;98711.38;2077990;27;20038;-74
2023/08/03 03:58:40;;;;;;;3.20;1.30;;;;;;;21.05;63.63;98714.50;2055524;28;20162;-76
2023/08/03 03:59:42;;;;;;;2.53;1.67;;;;;;;21.10;63.50;98713.31;2048334;28;20142;-75
2023/08/03 04:00:47;;;;;;;2.58;1.50;;;;;;;21.15;63.26;98710.16;2055941;28;20901;-75
2023/08/03 04:01:51;;;;;;;3.92;1.40;;;;;;;21.23;63.14;98711.72;2063485;28;20062;-75
2023/08/03 04:02:56;;;;;;;2.72;1.30;;;;;;;21.27;62.74;98712.47;2063032;28;20019;-75
2023/08/03 04:04:01;;;;;;;2.58;1.40;;;;;;;21.27;62.86;98707.78;2055918;28;20043;-74
2023/08/03 04:05:05;;;;;;;1.83;1.23;;;;;;;21.33;62.53;98715.59;2062953;28;20039;-75
2023/08/03 04:06:10;;;;;;;4.32;1.42;;;;;;;21.33;62.32;98716.38;2070489;28;20912;-75
2023/08/03 04:07:12;;;;;;;1.77;1.40;;;;;;;21.34;62.20;98711.69;2078288;27;21008;-74
2023/08/03 04:08:16;;;;;;;2.88;1.58;;;;;;;21.33;62.29;98708.16;2097160;28;20037;-74
2023/08/03 04:09:21;;;;;;;3.55;1.77;;;;;;;21.30;62.32;98706.22;2063454;28;20959;-75
2023/08/03 04:10:27;;;;;;;2.75;1.40;;;;;;;21.27;62.46;98698.81;2064066;28;20033;-75
2023/08/03 04:11:29;;;;;;;5.63;1.52;;;;;;;21.25;62.62;98714.84;2072948;28;20948;-74
2023/08/03 04:12:34;;;;;;;2.55;1.27;;;;;;;21.22;62.95;98721.09;2062694;28;20035;-75
2023/08/03 04:13:39;;;;;;;1.85;1.40;;;;;;;21.20;63.26;98715.25;2055888;28;21040;-75
2023/08/03 04:14:42;;;;;;;2.10;1.40;;;;;;;21.15;63.42;98705.47;2063428;28;20026;-75
2023/08/03 04:15:46;;;;;;;2.22;1.40;;;;;;;21.12;63.79;98708.22;2079368;28;20054;-75
2023/08/03 04:16:48;;;;;;;1.95;1.38;;;;;;;21.11;63.71;98709.41;2087159;28;20833;-75
2023/08/03 04:17:50;;;;;;;2.58;1.63;;;;;;;21.08;64.14;98704.72;2071165;28;20789;-75
2023/08/03 04:19:00;;;;;;;2.20;1.60;;;;;;;21.05;64.51;98715.25;2065196;28;20034;-76
2023/08/03 04:20:02;;;;;;;7.00;1.33;;;;;;;21.02;64.64;98718.78;2056346;28;20980;-75
2023/08/03 04:21:04;;;;;;;1.98;1.40;;;;;;;21.00;64.84;98715.69;2055106;28;20962;-76
2023/08/03 04:22:07;;;;;;;4.00;1.70;;;;;;;20.99;64.81;98716.84;2063298;28;20027;-75
2023/08/03 04:23:11;;;;;;;2.50;1.42;;;;;;;20.97;65.22;98716.47;2055968;28;20031;-74
2023/08/03 04:24:16;;;;;;;4.57;1.95;;;;;;;20.94;65.28;98722.72;2056967;28;20039;-74
2023/08/03 04:25:18;;;;;;;2.22;1.77;;;;;;;20.91;65.66;98714.53;2062937;28;20296;-74
2023/08/03 04:26:28;;;;;;;4.07;1.60;;;;;;;20.91;65.88;98720.00;2071584;28;20030;-75
2023/08/03 04:27:55;;;;;;;1.92;1.63;;;;;;;20.88;66.12;98716.09;2080547;28;20818;-74
2023/08/03 04:29:04;;;;;;;2.88;1.65;;;;;;;20.85;66.16;98713.38;2071226;28;20033;-74
2023/08/03 04:30:13;;;;;;;4.53;1.67;;;;;;;20.83;66.51;98711.00;2056891;28;20097;-74
2023/08/03 04:31:16;;;;;;;5.15;1.70;;;;;;;20.79;66.54;98710.25;2056932;28;20035;-74
2023/08/03 04:32:23;;;;;;;2.38;1.30;;;;;;;20.79;66.84;98712.97;2063285;28;20069;-74
2023/08/03 04:33:27;;;;;;;3.10;1.50;;;;;;;20.75;67.20;98714.94;2048116;28;20119;-74
2023/08/03 04:34:35;;;;;;;2.00;1.30;;;;;;;20.74;67.37;98718.81;2057265;28;20027;-74
2023/08/03 04:35:45;;;;;;;2.08;1.30;;;;;;;20.69;67.45;98711.81;2058215;28;20059;-74
2023/08/03 04:36:51;;;;;;;1.80;1.40;;;;;;;20.68;67.69;98720.38;2071589;28;20039;-74
2023/08/03 04:37:52;;;;;;;1.73;1.23;;;;;;;20.68;67.88;98714.91;2055052;28;20035;-74
2023/08/03 04:38:54;;;;;;;2.50;1.45;;;;;;;20.65;67.83;98715.69;2063817;28;20023;-74
2023/08/03 04:39:58;;;;;;;2.30;1.35;;;;;;;20.64;67.95;98736.00;2063451;28;20034;-74
2023/08/03 04:41:01;;;;;;;4.32;1.40;;;;;;;20.63;68.01;98742.63;2063810;28;20152;-74
2023/08/03 04:42:11;;;;;;;3.88;1.25;;;;;;;20.58;68.68;98733.66;2072598;28;20100;-74
2023/08/03 04:43:17;;;;;;;3.28;1.38;;;;;;;20.57;68.74;98743.00;2072937;28;20116;-74
2023/08/03 04:44:22;;;;;;;3.05;1.30;;;;;;;20.55;69.05;98737.19;2072599;28;20030;-74
2023/08/03 04:45:26;;;;;;;2.05;1.30;;;;;;;20.52;68.98;98727.03;2056146;28;20039;-74
2023/08/03 04:46:31;;;;;;;2.38;1.20;;;;;;;20.50;69.48;98721.16;2057061;28;20116;-74
2023/08/03 04:47:36;;;;;;;3.25;1.45;;;;;;;20.48;69.59;98723.47;2064429;28;20027;-74
2023/08/03 04:48:40;;;;;;;2.42;1.10;;;;;;;20.47;69.97;98732.84;2065330;28;20077;-73
2023/08/03 04:49:45;;;;;;;2.08;1.13;;;;;;;20.46;69.90;98727.75;2063545;28;20035;-73
2023/08/03 04:50:48;;;;;;;3.10;1.52;;;;;;;20.43;70.40;98732.06;2064081;28;21251;-73
2023/08/03 04:51:52;;;;;;;2.55;1.23;;;;;;;20.40;70.34;98730.13;2064396;28;20042;-73
2023/08/03 04:52:58;;;;;;;2.08;1.25;;;;;;;20.37;70.42;98728.94;2064132;28;20129;-73
2023/08/03 04:54:01;;;;;;;1.75;1.30;;;;;;;20.37;70.76;98734.41;2064490;28;20171;-73
2023/08/03 04:55:05;;;;;;;2.33;1.40;;;;;;;20.34;70.99;98724.25;2064361;28;20141;-73
2023/08/03 04:56:07;;;;;;;2.15;1.25;;;;;;;20.34;71.13;98723.50;2072120;28;20741;-73
2023/08/03 04:57:13;;;;;;;1.80;1.27;;;;;;;20.31;71.37;98732.44;2071752;28;20104;-73
2023/08/03 04:58:17;;;;;;;1.48;1.30;;;;;;;20.31;71.32;98733.22;2048994;28;20830;-73
2023/08/03 04:59:25;;;;;;;1.58;1.08;;;;;;;20.29;71.58;98732.06;2058757;28;20165;-73
2023/08/03 05:00:29;;;;;;;2.50;1.23;;;;;;;20.29;71.69;98738.28;2072279;28;20034;-73
2023/08/03 05:01:31;;;;;;;2.45;1.30;;;;;;;20.29;71.78;98737.50;2104581;28;20131;-73
2023/08/03 05:02:37;;;;;;;2.10;1.40;;;;;;;20.28;72.14;98738.69;2065039;28;20069;-73
2023/08/03 05:03:43;;;;;;;3.58;1.20;;;;;;;20.28;72.11;98741.41;2080262;28;20128;-73